Time;durP1;ratioP1;P1;durP2;ratioP2;P2;SDS_P1;SDS_P2;PMS_P1;PMS_P2;Temp;Humidity;BMP_temperature;BMP_pressure;BME280_temperature;BME280_humidity;BME280_pressure;Samples;Min_cycle;Max_cycle;Signal;HPM_P1;HPM_P2
2024/04/06 00:01:03;;;;;;;4.17;3.25;;;;;;;;;;1924829;74;21006;-47
2024/04/06 00:03:32;;;;;;;6.05;3.12;;;;;;;;;;1924788;74;21093;-45
2024/04/06 00:06:00;;;;;;;4.67;3.05;;;;;;;;;;1924948;74;21100;-45
2024/04/06 00:08:28;;;;;;;4.50;3.02;;;;;;;;;;1925016;74;21096;-47
2024/04/06 00:10:57;;;;;;;4.00;3.35;;;;;;;;;;1924920;74;21031;-46
2024/04/06 00:13:26;;;;;;;6.17;3.80;;;;;;;;;;1924901;74;21023;-46
2024/04/06 00:15:55;;;;;;;7.03;3.72;;;;;;;;;;1924945;74;21050;-45
2024/04/06 00:18:24;;;;;;;8.45;3.67;;;;;;;;;;1924913;74;21054;-45
2024/04/06 00:20:53;;;;;;;6.60;3.33;;;;;;;;;;1925015;74;21031;-46
2024/04/06 00:23:21;;;;;;;6.30;2.85;;;;;;;;;;1924880;74;21034;-46
2024/04/06 00:25:50;;;;;;;6.45;3.08;;;;;;;;;;1925037;74;21027;-45
2024/04/06 00:28:18;;;;;;;3.67;3.22;;;;;;;;;;1924891;74;20995;-45
2024/04/06 00:30:47;;;;;;;15.23;2.98;;;;;;;;;;1924952;74;21028;-46
2024/04/06 00:33:16;;;;;;;7.42;2.60;;;;;;;;;;1924907;74;21093;-46
2024/04/06 00:35:45;;;;;;;3.98;2.47;;;;;;;;;;1908363;74;21216;-45
2024/04/06 00:38:13;;;;;;;4.85;2.35;;;;;;;;;;1905409;75;21087;-45
2024/04/06 00:40:42;;;;;;;3.42;2.40;;;;;;;;;;1905649;75;21097;-47
2024/04/06 00:43:11;;;;;;;2.92;2.27;;;;;;;;;;1905495;75;21016;-46
2024/04/06 00:45:39;;;;;;;3.85;2.20;;;;;;;;;;1905638;74;21000;-45
2024/04/06 00:48:10;;;;;;;7.15;2.55;;;;;;;;;;1905490;75;21047;-45
2024/04/06 00:50:40;;;;;;;5.50;2.70;;;;;;;;;;1905646;75;21515;-45
2024/04/06 00:53:08;;;;;;;6.12;2.72;;;;;;;;;;1905306;75;21111;-46
2024/04/06 00:55:37;;;;;;;6.30;2.67;;;;;;;;;;1905405;75;21077;-45
2024/04/06 00:58:06;;;;;;;4.08;2.20;;;;;;;;;;1905218;75;21090;-48
2024/04/06 01:00:34;;;;;;;3.50;2.42;;;;;;;;;;1905406;75;21103;-47
2024/04/06 01:03:04;;;;;;;4.90;2.52;;;;;;;;;;1905268;75;21089;-45
2024/04/06 01:05:33;;;;;;;4.10;2.50;;;;;;;;;;1905275;74;20968;-48
2024/04/06 01:08:02;;;;;;;3.87;2.05;;;;;;;;;;1905266;75;21027;-44
2024/04/06 01:10:30;;;;;;;3.75;2.10;;;;;;;;;;1905349;75;21050;-46
2024/04/06 01:12:59;;;;;;;3.60;2.35;;;;;;;;;;1905350;74;21082;-48
2024/04/06 01:15:32;;;;;;;5.25;2.30;;;;;;;;;;1905331;75;21031;-45
2024/04/06 01:17:57;;;;;;;3.25;2.58;;;;;;;;;;1904973;74;21543;-45
2024/04/06 01:20:29;;;;;;;3.75;2.50;;;;;;;;;;1905310;75;21047;-45
2024/04/06 01:22:57;;;;;;;3.72;2.35;;;;;;;;;;1905245;75;21008;-45
2024/04/06 01:25:26;;;;;;;3.62;2.58;;;;;;;;;;1905279;74;21352;-46
2024/04/06 01:27:55;;;;;;;5.75;2.37;;;;;;;;;;1905510;75;21086;-45
2024/04/06 01:30:23;;;;;;;4.35;2.95;;;;;;;;;;1905506;75;21099;-45
2024/04/06 01:32:53;;;;;;;4.53;2.60;;;;;;;;;;1905491;75;21039;-45
2024/04/06 01:35:21;;;;;;;5.55;2.72;;;;;;;;;;1905459;74;21043;-45
2024/04/06 01:37:50;;;;;;;3.62;2.62;;;;;;;;;;1905458;75;21054;-45
2024/04/06 01:40:18;;;;;;;4.03;2.37;;;;;;;;;;1905409;75;21077;-45
2024/04/06 01:42:47;;;;;;;4.00;2.83;;;;;;;;;;1905352;74;21011;-45
2024/04/06 01:45:16;;;;;;;4.50;2.20;;;;;;;;;;1905373;75;21119;-45
2024/04/06 01:47:44;;;;;;;3.25;2.75;;;;;;;;;;1905388;75;21027;-46
2024/04/06 01:50:13;;;;;;;6.50;2.60;;;;;;;;;;1905384;75;21024;-48
2024/04/06 01:52:42;;;;;;;4.80;2.40;;;;;;;;;;1905327;75;21130;-45
2024/04/06 01:55:11;;;;;;;3.75;2.80;;;;;;;;;;1905363;75;21070;-46
2024/04/06 01:57:39;;;;;;;4.12;2.70;;;;;;;;;;1905371;75;21035;-45
2024/04/06 02:00:08;;;;;;;5.15;2.52;;;;;;;;;;1905394;75;21027;-45
2024/04/06 02:02:43;;;;;;;3.12;2.35;;;;;;;;;;1905276;75;21032;-46
2024/04/06 02:05:12;;;;;;;6.40;2.45;;;;;;;;;;1905515;75;21046;-45
2024/04/06 02:07:41;;;;;;;5.45;2.77;;;;;;;;;;1905314;75;21054;-44
2024/04/06 02:10:09;;;;;;;2.98;2.67;;;;;;;;;;1905428;75;21085;-45
2024/04/06 02:12:38;;;;;;;5.80;2.90;;;;;;;;;;1905368;75;21031;-45
2024/04/06 02:15:07;;;;;;;4.62;2.75;;;;;;;;;;1905496;75;21101;-45
2024/04/06 02:17:37;;;;;;;3.92;3.42;;;;;;;;;;1905413;75;21121;-47
2024/04/06 02:20:06;;;;;;;3.75;2.47;;;;;;;;;;1905353;74;21492;-45
2024/04/06 02:22:34;;;;;;;6.42;2.98;;;;;;;;;;1905291;75;21028;-45
2024/04/06 02:25:03;;;;;;;5.10;2.52;;;;;;;;;;1905340;75;21038;-45
2024/04/06 02:27:32;;;;;;;3.65;3.00;;;;;;;;;;1905315;74;21015;-45
2024/04/06 02:30:01;;;;;;;10.32;3.30;;;;;;;;;;1905336;74;21035;-46
2024/04/06 02:32:29;;;;;;;4.62;2.60;;;;;;;;;;1905334;75;21032;-45
2024/04/06 02:34:58;;;;;;;5.00;2.98;;;;;;;;;;1907272;74;21023;-46
2024/04/06 02:37:27;;;;;;;5.22;2.92;;;;;;;;;;1924768;74;21100;-45
2024/04/06 02:39:56;;;;;;;7.62;2.87;;;;;;;;;;1924744;74;21096;-45
2024/04/06 02:42:24;;;;;;;5.78;3.45;;;;;;;;;;1924788;74;21007;-45
2024/04/06 02:44:53;;;;;;;4.08;2.65;;;;;;;;;;1924678;74;21026;-45
2024/04/06 02:47:22;;;;;;;5.03;2.50;;;;;;;;;;1924678;74;21031;-47
2024/04/06 02:49:50;;;;;;;7.12;3.20;;;;;;;;;;1924739;74;21035;-47
2024/04/06 02:52:19;;;;;;;4.25;3.08;;;;;;;;;;1924710;74;21030;-45
2024/04/06 02:54:52;;;;;;;8.03;4.22;;;;;;;;;;1924676;74;21102;-45
2024/04/06 02:57:20;;;;;;;6.35;3.45;;;;;;;;;;1922771;74;21054;-45
2024/04/06 02:59:49;;;;;;;33.88;5.08;;;;;;;;;;1924719;74;21096;-46
2024/04/06 03:02:19;;;;;;;16.27;3.77;;;;;;;;;;1924771;74;21113;-45
2024/04/06 03:04:47;;;;;;;19.57;4.20;;;;;;;;;;1924637;74;21022;-45
2024/04/06 03:07:16;;;;;;;15.25;4.03;;;;;;;;;;1924709;74;21031;-44
2024/04/06 03:09:45;;;;;;;16.25;3.72;;;;;;;;;;1924807;74;21022;-45
2024/04/06 03:12:14;;;;;;;9.70;3.98;;;;;;;;;;1924696;74;21019;-46
2024/04/06 03:14:43;;;;;;;13.45;3.42;;;;;;;;;;1924694;74;21035;-45
2024/04/06 03:17:12;;;;;;;19.80;4.45;;;;;;;;;;1924609;74;21023;-45
2024/04/06 03:19:40;;;;;;;13.18;3.67;;;;;;;;;;1924778;74;21084;-46
2024/04/06 03:22:09;;;;;;;17.02;4.35;;;;;;;;;;1924661;74;21097;-45
2024/04/06 03:24:37;;;;;;;11.08;3.40;;;;;;;;;;1924673;74;21097;-45
2024/04/06 03:27:06;;;;;;;16.07;4.30;;;;;;;;;;1924601;74;21038;-46
2024/04/06 03:29:34;;;;;;;7.90;3.55;;;;;;;;;;1924824;74;21034;-45
2024/04/06 03:32:03;;;;;;;9.80;4.12;;;;;;;;;;1924795;74;21096;-45
2024/04/06 03:34:32;;;;;;;21.73;7.55;;;;;;;;;;1924754;74;21077;-45
2024/04/06 03:37:01;;;;;;;17.60;5.92;;;;;;;;;;1910358;74;21035;-45
2024/04/06 03:39:32;;;;;;;17.50;5.22;;;;;;;;;;1905388;75;21489;-45
2024/04/06 03:42:00;;;;;;;19.23;5.90;;;;;;;;;;1905521;75;21153;-45
2024/04/06 03:44:29;;;;;;;13.30;5.30;;;;;;;;;;1905387;75;21094;-45
2024/04/06 03:46:58;;;;;;;22.70;6.30;;;;;;;;;;1905569;75;21035;-45
2024/04/06 03:49:26;;;;;;;15.60;4.53;;;;;;;;;;1905475;75;21071;-46
2024/04/06 03:51:55;;;;;;;12.20;4.22;;;;;;;;;;1905431;75;21066;-48
2024/04/06 03:54:23;;;;;;;20.90;6.00;;;;;;;;;;1905336;75;21101;-45
2024/04/06 03:56:51;;;;;;;12.88;3.98;;;;;;;;;;1905357;75;21093;-45
2024/04/06 03:59:20;;;;;;;11.90;5.42;;;;;;;;;;1905439;75;21020;-45
2024/04/06 04:01:49;;;;;;;8.20;4.00;;;;;;;;;;1905448;75;21039;-45
2024/04/06 04:04:18;;;;;;;10.75;4.35;;;;;;;;;;1905456;75;21035;-45
2024/04/06 04:06:46;;;;;;;47.55;5.85;;;;;;;;;;1905432;75;21027;-45
2024/04/06 04:09:16;;;;;;;4.92;3.42;;;;;;;;;;1905396;74;21089;-45
2024/04/06 04:11:44;;;;;;;9.55;4.30;;;;;;;;;;1905366;75;21073;-45
2024/04/06 04:14:13;;;;;;;8.73;3.72;;;;;;;;;;1905361;75;21020;-45
2024/04/06 04:16:41;;;;;;;8.90;3.90;;;;;;;;;;1905323;75;21082;-45
2024/04/06 04:19:11;;;;;;;5.05;3.33;;;;;;;;;;1905328;75;21090;-44
2024/04/06 04:21:39;;;;;;;6.72;3.70;;;;;;;;;;1905408;75;21066;-45
2024/04/06 04:24:08;;;;;;;3.33;2.98;;;;;;;;;;1905288;75;21085;-45
2024/04/06 04:26:37;;;;;;;4.05;3.47;;;;;;;;;;1905400;75;21027;-46
2024/04/06 04:29:05;;;;;;;6.30;3.70;;;;;;;;;;1905281;75;21059;-45
2024/04/06 04:31:34;;;;;;;8.20;3.47;;;;;;;;;;1905342;75;21098;-45
2024/04/06 04:34:03;;;;;;;6.35;2.90;;;;;;;;;;1905277;75;21144;-45
2024/04/06 04:36:32;;;;;;;5.05;3.40;;;;;;;;;;1911818;74;21171;-46
2024/04/06 04:39:01;;;;;;;7.30;3.10;;;;;;;;;;1924808;74;21083;-45
2024/04/06 04:41:29;;;;;;;6.45;4.15;;;;;;;;;;1924718;74;21011;-45
2024/04/06 04:43:58;;;;;;;10.70;5.37;;;;;;;;;;1924715;74;21034;-44
2024/04/06 04:46:27;;;;;;;9.38;4.62;;;;;;;;;;1924666;74;21035;-45
2024/04/06 04:48:57;;;;;;;10.28;4.97;;;;;;;;;;1924713;74;21082;-45
2024/04/06 04:51:25;;;;;;;15.65;5.62;;;;;;;;;;1924722;74;20991;-48
2024/04/06 04:53:54;;;;;;;17.85;5.58;;;;;;;;;;1924699;74;21030;-45
2024/04/06 04:56:23;;;;;;;8.50;4.30;;;;;;;;;;1924834;74;21093;-45
2024/04/06 04:58:51;;;;;;;12.85;4.80;;;;;;;;;;1924777;74;21062;-45
2024/04/06 05:01:20;;;;;;;8.83;4.22;;;;;;;;;;1924813;74;21015;-45
2024/04/06 05:03:49;;;;;;;9.60;5.00;;;;;;;;;;1924726;74;21006;-46
2024/04/06 05:06:18;;;;;;;5.78;3.83;;;;;;;;;;1924650;74;21202;-46
2024/04/06 05:08:46;;;;;;;7.35;4.25;;;;;;;;;;1924756;74;21042;-46
2024/04/06 05:11:15;;;;;;;10.03;4.15;;;;;;;;;;1924740;74;21022;-45
2024/04/06 05:13:44;;;;;;;9.45;4.33;;;;;;;;;;1924600;74;21100;-45
2024/04/06 05:16:13;;;;;;;9.18;4.65;;;;;;;;;;1924634;74;21093;-45
2024/04/06 05:18:41;;;;;;;11.60;4.12;;;;;;;;;;1924542;74;21096;-46
2024/04/06 05:21:10;;;;;;;6.40;3.90;;;;;;;;;;1924646;74;21182;-45
2024/04/06 05:23:39;;;;;;;8.10;3.85;;;;;;;;;;1924526;74;21034;-47
2024/04/06 05:26:07;;;;;;;10.43;3.72;;;;;;;;;;1924517;74;21093;-45
2024/04/06 05:28:36;;;;;;;6.65;3.83;;;;;;;;;;1924684;74;21132;-45
2024/04/06 05:31:05;;;;;;;4.40;3.15;;;;;;;;;;1924612;74;21030;-47
2024/04/06 05:33:34;;;;;;;6.78;3.52;;;;;;;;;;1924777;74;21186;-44
2024/04/06 05:36:04;;;;;;;9.00;3.83;;;;;;;;;;1924619;74;21006;-45
2024/04/06 05:38:33;;;;;;;6.58;3.47;;;;;;;;;;1905599;74;21121;-45
2024/04/06 05:41:01;;;;;;;7.03;3.75;;;;;;;;;;1905334;75;21023;-45
2024/04/06 05:43:30;;;;;;;4.65;3.37;;;;;;;;;;1905254;75;21032;-45
2024/04/06 05:46:03;;;;;;;6.17;4.12;;;;;;;;;;1905238;75;21102;-45
2024/04/06 05:48:31;;;;;;;11.25;4.72;;;;;;;;;;1905278;74;21047;-44
2024/04/06 05:51:00;;;;;;;4.75;3.10;;;;;;;;;;1905303;74;21019;-45
2024/04/06 05:53:28;;;;;;;6.28;3.45;;;;;;;;;;1905295;75;21097;-45
2024/04/06 05:55:57;;;;;;;5.50;3.10;;;;;;;;;;1905467;74;21011;-45
2024/04/06 05:58:26;;;;;;;10.23;4.87;;;;;;;;;;1905303;75;21509;-44
2024/04/06 06:00:54;;;;;;;15.58;5.80;;;;;;;;;;1905204;75;21039;-45
2024/04/06 06:03:23;;;;;;;13.18;5.40;;;;;;;;;;1905266;75;20995;-45
2024/04/06 06:05:51;;;;;;;20.12;8.73;;;;;;;;;;1905229;75;21069;-45
2024/04/06 06:08:19;;;;;;;21.23;9.35;;;;;;;;;;1905315;75;21035;-45
2024/04/06 06:10:48;;;;;;;31.90;11.53;;;;;;;;;;1905373;75;21024;-45
2024/04/06 06:13:17;;;;;;;35.63;11.70;;;;;;;;;;1905333;74;21054;-44
2024/04/06 06:15:45;;;;;;;26.75;8.83;;;;;;;;;;1905312;75;21085;-46
2024/04/06 06:18:14;;;;;;;16.15;7.95;;;;;;;;;;1905308;74;21023;-45
2024/04/06 06:20:43;;;;;;;28.02;8.73;;;;;;;;;;1905350;75;21028;-45
2024/04/06 06:23:11;;;;;;;21.97;10.10;;;;;;;;;;1905371;75;21020;-45
2024/04/06 06:25:40;;;;;;;40.70;10.08;;;;;;;;;;1905316;75;21093;-44
2024/04/06 06:28:08;;;;;;;18.85;7.50;;;;;;;;;;1905362;75;21043;-45
2024/04/06 06:30:38;;;;;;;16.40;6.62;;;;;;;;;;1905292;75;21123;-47
2024/04/06 06:33:07;;;;;;;20.37;7.62;;;;;;;;;;1905134;75;21077;-46
2024/04/06 06:35:36;;;;;;;11.60;5.67;;;;;;;;;;1905330;75;21058;-46
2024/04/06 06:38:05;;;;;;;6.25;3.08;;;;;;;;;;1916893;74;21123;-46
2024/04/06 06:40:35;;;;;;;10.72;4.37;;;;;;;;;;1924721;74;21088;-46
2024/04/06 06:43:04;;;;;;;7.87;4.47;;;;;;;;;;1924597;74;21039;-44
2024/04/06 06:45:32;;;;;;;11.68;4.85;;;;;;;;;;1924718;74;21097;-45
2024/04/06 06:48:01;;;;;;;4.35;2.87;;;;;;;;;;1924755;74;21026;-45
2024/04/06 06:50:29;;;;;;;3.72;2.20;;;;;;;;;;1924713;74;21034;-45
2024/04/06 06:52:58;;;;;;;2.70;1.70;;;;;;;;;;1924650;74;21104;-44
2024/04/06 06:55:27;;;;;;;3.52;1.90;;;;;;;;;;1924682;74;21066;-45
2024/04/06 06:57:55;;;;;;;13.03;2.47;;;;;;;;;;1924605;74;21163;-44
2024/04/06 07:00:24;;;;;;;3.15;1.95;;;;;;;;;;1924680;74;21088;-45
2024/04/06 07:02:52;;;;;;;2.35;1.70;;;;;;;;;;1924768;74;21034;-45
2024/04/06 07:05:21;;;;;;;8.83;2.37;;;;;;;;;;1924746;74;21023;-44
2024/04/06 07:07:55;;;;;;;3.35;2.17;;;;;;;;;;1924601;74;21105;-44
2024/04/06 07:10:23;;;;;;;3.67;1.90;;;;;;;;;;1924625;74;20979;-45
2024/04/06 07:12:52;;;;;;;7.03;1.70;;;;;;;;;;1924723;74;21031;-44
2024/04/06 07:15:21;;;;;;;2.37;1.85;;;;;;;;;;1924919;74;21108;-48
2024/04/06 07:17:50;;;;;;;1.85;1.40;;;;;;;;;;1924737;74;21039;-45
2024/04/06 07:20:18;;;;;;;3.65;2.00;;;;;;;;;;1924775;74;21080;-45
2024/04/06 07:22:47;;;;;;;3.37;1.90;;;;;;;;;;1924732;74;21152;-45
2024/04/06 07:25:16;;;;;;;4.20;2.02;;;;;;;;;;1924696;74;21050;-46
2024/04/06 07:27:44;;;;;;;3.87;2.00;;;;;;;;;;1924739;74;21085;-45
2024/04/06 07:30:13;;;;;;;7.78;2.52;;;;;;;;;;1924837;74;21128;-47
2024/04/06 07:32:42;;;;;;;4.05;2.20;;;;;;;;;;1924722;74;21038;-45
2024/04/06 07:35:10;;;;;;;5.17;2.10;;;;;;;;;;1924918;74;21035;-46
2024/04/06 07:37:39;;;;;;;3.52;2.20;;;;;;;;;;1920312;74;21064;-47
2024/04/06 07:40:08;;;;;;;3.20;2.12;;;;;;;;;;1905477;75;21031;-45
2024/04/06 07:42:37;;;;;;;6.65;3.25;;;;;;;;;;1905324;74;21043;-47
2024/04/06 07:45:06;;;;;;;6.80;2.08;;;;;;;;;;1905467;74;21019;-45
2024/04/06 07:47:35;;;;;;;2.75;1.72;;;;;;;;;;1905315;75;21024;-46
2024/04/06 07:50:03;;;;;;;4.97;2.30;;;;;;;;;;1905376;75;21069;-45
2024/04/06 07:52:33;;;;;;;5.17;2.65;;;;;;;;;;1905354;75;21032;-45
2024/04/06 07:55:02;;;;;;;4.00;2.05;;;;;;;;;;1905344;75;21015;-44
2024/04/06 07:57:31;;;;;;;6.78;2.55;;;;;;;;;;1905411;74;21100;-46
2024/04/06 08:00:01;;;;;;;7.55;2.20;;;;;;;;;;1905356;75;21012;-45
2024/04/06 08:02:31;;;;;;;3.30;2.00;;;;;;;;;;1905167;74;21017;-45
2024/04/06 08:05:00;;;;;;;8.33;3.15;;;;;;;;;;1905443;75;20979;-46
2024/04/06 08:07:28;;;;;;;7.40;2.35;;;;;;;;;;1905433;75;21034;-45
2024/04/06 08:09:58;;;;;;;6.33;2.42;;;;;;;;;;1905475;75;21074;-45
2024/04/06 08:12:26;;;;;;;7.33;2.05;;;;;;;;;;1905352;75;21466;-45
2024/04/06 08:14:55;;;;;;;3.62;2.50;;;;;;;;;;1905331;75;21035;-45
2024/04/06 08:17:24;;;;;;;5.08;1.72;;;;;;;;;;1905452;75;21027;-45
2024/04/06 08:19:53;;;;;;;6.30;2.27;;;;;;;;;;1905380;75;21105;-46
2024/04/06 08:22:22;;;;;;;16.23;3.10;;;;;;;;;;1905363;75;21024;-46
2024/04/06 08:24:50;;;;;;;6.00;2.62;;;;;;;;;;1905495;75;21007;-45
2024/04/06 08:27:19;;;;;;;4.17;2.40;;;;;;;;;;1905316;75;21043;-46
2024/04/06 08:29:47;;;;;;;6.12;2.40;;;;;;;;;;1905376;75;21035;-45
2024/04/06 08:32:17;;;;;;;4.10;2.05;;;;;;;;;;1905444;75;21012;-45
2024/04/06 08:34:46;;;;;;;7.85;2.80;;;;;;;;;;1905346;75;21027;-44
2024/04/06 08:37:15;;;;;;;3.85;1.85;;;;;;;;;;1905271;75;21024;-45
2024/04/06 08:39:44;;;;;;;6.08;1.70;;;;;;;;;;1922270;74;21116;-45
2024/04/06 08:42:13;;;;;;;2.75;2.10;;;;;;;;;;1924742;74;21023;-45
2024/04/06 08:44:43;;;;;;;8.43;2.37;;;;;;;;;;1924897;74;21086;-45
2024/04/06 08:47:13;;;;;;;11.20;3.17;;;;;;;;;;1924722;74;21084;-45
2024/04/06 08:49:41;;;;;;;3.25;1.70;;;;;;;;;;1923708;74;21019;-45
2024/04/06 08:52:11;;;;;;;2.65;2.27;;;;;;;;;;1924637;74;21022;-46
2024/04/06 08:54:40;;;;;;;6.00;2.10;;;;;;;;;;1924678;74;20990;-45
2024/04/06 08:57:09;;;;;;;6.10;2.55;;;;;;;;;;1924797;74;21023;-45
2024/04/06 08:59:38;;;;;;;4.97;2.47;;;;;;;;;;1924729;74;21035;-45
2024/04/06 09:02:06;;;;;;;4.25;2.72;;;;;;;;;;1924770;74;20991;-45
2024/04/06 09:04:35;;;;;;;6.62;3.17;;;;;;;;;;1924687;74;21042;-46
2024/04/06 09:07:03;;;;;;;4.42;2.77;;;;;;;;;;1924827;74;21031;-45
2024/04/06 09:09:33;;;;;;;4.00;2.52;;;;;;;;;;1924842;74;21027;-44
2024/04/06 09:12:03;;;;;;;6.83;2.47;;;;;;;;;;1924689;74;21046;-45
2024/04/06 09:14:32;;;;;;;3.77;3.00;;;;;;;;;;1924926;74;21034;-45
2024/04/06 09:17:00;;;;;;;4.83;2.30;;;;;;;;;;1924627;74;21023;-45
2024/04/06 09:19:29;;;;;;;6.90;3.08;;;;;;;;;;1924682;74;21529;-45
2024/04/06 09:21:57;;;;;;;12.28;4.05;;;;;;;;;;1924657;74;21003;-46
2024/04/06 09:24:28;;;;;;;2.30;1.85;;;;;;;;;;1924693;74;21027;-45
2024/04/06 09:27:06;;;;;;;7.37;2.37;;;;;;;;;;1923789;74;21046;-45
2024/04/06 09:29:36;;;;;;;3.10;2.00;;;;;;;;;;1924720;74;21035;-45
2024/04/06 09:32:10;;;;;;;7.75;2.80;;;;;;;;;;1924766;74;21030;-44
2024/04/06 09:34:36;;;;;;;4.03;2.47;;;;;;;;;;1924301;74;21047;-45
2024/04/06 09:37:06;;;;;;;2.98;2.02;;;;;;;;;;1924610;74;21027;-46
2024/04/06 09:39:35;;;;;;;2.83;1.67;;;;;;;;;;1924525;74;21116;-46
2024/04/06 09:42:04;;;;;;;3.37;2.52;;;;;;;;;;1924561;74;21034;-45
2024/04/06 09:44:33;;;;;;;2.50;1.82;;;;;;;;;;1924648;74;21007;-46
2024/04/06 09:47:03;;;;;;;3.05;2.27;;;;;;;;;;1924624;74;21028;-46
2024/04/06 09:49:32;;;;;;;4.25;2.05;;;;;;;;;;1924572;74;21117;-46
2024/04/06 09:52:01;;;;;;;2.10;1.70;;;;;;;;;;1924561;74;21031;-47
2024/04/06 09:54:29;;;;;;;2.40;1.98;;;;;;;;;;1924690;74;21023;-45
2024/04/06 09:56:59;;;;;;;3.95;2.12;;;;;;;;;;1924593;74;21106;-45
2024/04/06 09:59:28;;;;;;;2.77;1.70;;;;;;;;;;1924700;74;21003;-46
2024/04/06 10:01:57;;;;;;;4.40;2.52;;;;;;;;;;1924676;74;21078;-44
2024/04/06 10:04:26;;;;;;;4.12;2.20;;;;;;;;;;1924697;74;21018;-44
2024/04/06 10:06:55;;;;;;;4.55;1.85;;;;;;;;;;1924764;74;21155;-45
2024/04/06 10:09:34;;;;;;;4.83;1.90;;;;;;;;;;1924851;74;21019;-44
2024/04/06 10:12:04;;;;;;;8.78;2.98;;;;;;;;;;1924719;74;21026;-44
2024/04/06 10:14:32;;;;;;;2.70;1.65;;;;;;;;;;1924699;74;21080;-45
2024/04/06 10:17:12;;;;;;;2.27;1.82;;;;;;;;;;1924601;74;21038;-44
2024/04/06 10:19:39;;;;;;;4.22;1.82;;;;;;;;;;1922942;74;21484;-45
2024/04/06 10:22:07;;;;;;;3.52;1.67;;;;;;;;;;1924503;74;21132;-45
2024/04/06 10:24:36;;;;;;;13.15;3.40;;;;;;;;;;1924619;74;21007;-46
2024/04/06 10:27:07;;;;;;;3.47;2.08;;;;;;;;;;1924523;74;21092;-46
2024/04/06 10:29:36;;;;;;;11.45;3.08;;;;;;;;;;1923763;74;21042;-45
2024/04/06 10:32:05;;;;;;;8.98;3.47;;;;;;;;;;1924615;74;21015;-45
2024/04/06 10:34:33;;;;;;;4.85;2.25;;;;;;;;;;1924593;74;21013;-45
2024/04/06 10:37:02;;;;;;;5.30;2.37;;;;;;;;;;1924498;74;21011;-45
2024/04/06 10:39:32;;;;;;;2.95;2.00;;;;;;;;;;1924490;74;21124;-44
2024/04/06 10:42:01;;;;;;;2.27;0.85;;;;;;;;;;1924537;74;21027;-46
2024/04/06 10:44:30;;;;;;;3.42;1.65;;;;;;;;;;1924455;74;20991;-45
2024/04/06 10:46:59;;;;;;;2.77;1.98;;;;;;;;;;1924607;74;21039;-47
2024/04/06 10:49:27;;;;;;;8.63;3.35;;;;;;;;;;1924754;74;21077;-44
2024/04/06 10:51:56;;;;;;;5.45;1.57;;;;;;;;;;1924785;74;21019;-45
2024/04/06 10:54:25;;;;;;;5.97;3.20;;;;;;;;;;1924660;74;21096;-44
2024/04/06 10:56:53;;;;;;;6.60;2.83;;;;;;;;;;1924801;74;21023;-46
2024/04/06 10:59:23;;;;;;;5.95;2.58;;;;;;;;;;1924676;74;21011;-46
2024/04/06 11:01:52;;;;;;;4.33;2.25;;;;;;;;;;1924518;74;21019;-44
2024/04/06 11:04:20;;;;;;;10.90;2.12;;;;;;;;;;1924757;74;21096;-45
2024/04/06 11:06:49;;;;;;;3.65;1.90;;;;;;;;;;1924626;74;21100;-46
2024/04/06 11:09:18;;;;;;;3.92;1.90;;;;;;;;;;1924679;74;21050;-46
2024/04/06 11:11:46;;;;;;;2.95;1.90;;;;;;;;;;1924737;74;21010;-46
2024/04/06 11:14:15;;;;;;;3.47;2.12;;;;;;;;;;1924628;74;21031;-46
2024/04/06 11:16:44;;;;;;;4.58;2.00;;;;;;;;;;1924737;74;21006;-44
2024/04/06 11:19:16;;;;;;;3.42;2.27;;;;;;;;;;1924691;74;21030;-46
2024/04/06 11:21:44;;;;;;;5.20;2.00;;;;;;;;;;1924605;74;21453;-47
2024/04/06 11:24:13;;;;;;;2.72;1.70;;;;;;;;;;1924673;74;21088;-48
2024/04/06 11:26:41;;;;;;;5.15;2.12;;;;;;;;;;1924719;74;21023;-44
2024/04/06 11:29:13;;;;;;;16.57;2.92;;;;;;;;;;1924649;74;21108;-45
2024/04/06 11:31:42;;;;;;;7.47;1.72;;;;;;;;;;1924648;74;21489;-45
2024/04/06 11:34:11;;;;;;;9.25;2.40;;;;;;;;;;1924630;74;21112;-46
2024/04/06 11:36:39;;;;;;;3.40;2.08;;;;;;;;;;1924590;74;21015;-46
2024/04/06 11:39:07;;;;;;;5.37;1.72;;;;;;;;;;1924110;74;21070;-45
2024/04/06 11:41:36;;;;;;;4.95;2.00;;;;;;;;;;1905378;75;21016;-48
2024/04/06 11:44:05;;;;;;;8.65;2.00;;;;;;;;;;1905296;75;21089;-44
2024/04/06 11:46:34;;;;;;;5.60;3.27;;;;;;;;;;1905319;75;20995;-45
2024/04/06 11:49:05;;;;;;;5.42;2.25;;;;;;;;;;1905295;75;20988;-45
2024/04/06 11:51:34;;;;;;;5.25;2.40;;;;;;;;;;1905334;75;21458;-45
2024/04/06 11:54:03;;;;;;;4.42;2.00;;;;;;;;;;1905357;75;21138;-44
2024/04/06 11:56:31;;;;;;;5.87;2.15;;;;;;;;;;1905199;75;21109;-44
2024/04/06 11:59:00;;;;;;;2.77;2.20;;;;;;;;;;1905245;75;21089;-45
2024/04/06 12:01:28;;;;;;;2.58;1.87;;;;;;;;;;1905399;74;21031;-44
2024/04/06 12:03:57;;;;;;;3.72;2.33;;;;;;;;;;1905252;75;21365;-44
2024/04/06 12:06:26;;;;;;;3.60;1.95;;;;;;;;;;1905194;74;21036;-43
2024/04/06 12:08:55;;;;;;;3.95;1.87;;;;;;;;;;1905278;75;21101;-44
2024/04/06 12:11:23;;;;;;;2.50;1.70;;;;;;;;;;1905327;75;21094;-44
2024/04/06 12:13:51;;;;;;;3.17;1.82;;;;;;;;;;1905310;75;21039;-44
2024/04/06 12:16:20;;;;;;;3.75;1.80;;;;;;;;;;1905208;75;20979;-43
2024/04/06 12:18:49;;;;;;;1.87;1.55;;;;;;;;;;1905217;75;20980;-44
2024/04/06 12:21:17;;;;;;;4.10;1.72;;;;;;;;;;1905240;75;21027;-45
2024/04/06 12:23:46;;;;;;;3.02;1.75;;;;;;;;;;1905276;75;21098;-45
2024/04/06 12:26:15;;;;;;;8.63;1.70;;;;;;;;;;1905312;74;21016;-45
2024/04/06 12:28:44;;;;;;;6.78;1.80;;;;;;;;;;1905244;75;21093;-46
2024/04/06 12:31:13;;;;;;;8.45;2.05;;;;;;;;;;1905262;75;21039;-44
2024/04/06 12:33:41;;;;;;;24.67;3.08;;;;;;;;;;1905314;75;21027;-45
2024/04/06 12:36:09;;;;;;;3.67;2.27;;;;;;;;;;1905255;75;21032;-44
2024/04/06 12:38:38;;;;;;;4.28;2.40;;;;;;;;;;1905208;75;21090;-45
2024/04/06 12:41:07;;;;;;;4.03;2.08;;;;;;;;;;1917457;74;21054;-43
2024/04/06 12:43:37;;;;;;;3.02;1.45;;;;;;;;;;1924638;74;21136;-45
2024/04/06 12:46:05;;;;;;;8.13;1.50;;;;;;;;;;1924551;74;21069;-45
2024/04/06 12:48:34;;;;;;;8.43;3.72;;;;;;;;;;1924607;74;20995;-44
2024/04/06 12:51:02;;;;;;;4.17;1.95;;;;;;;;;;1924584;74;21035;-44
2024/04/06 12:53:31;;;;;;;4.20;1.75;;;;;;;;;;1924616;74;21034;-44
2024/04/06 12:56:00;;;;;;;3.70;2.17;;;;;;;;;;1924671;74;21014;-44
2024/04/06 12:58:28;;;;;;;14.38;5.28;;;;;;;;;;1924620;74;21116;-45
2024/04/06 13:00:57;;;;;;;6.40;2.67;;;;;;;;;;1924542;74;21034;-45
2024/04/06 13:03:26;;;;;;;21.25;3.50;;;;;;;;;;1924588;74;21014;-44
2024/04/06 13:05:54;;;;;;;5.08;1.52;;;;;;;;;;1924575;74;21101;-45
2024/04/06 13:08:25;;;;;;;2.92;1.80;;;;;;;;;;1924582;74;21026;-46
2024/04/06 13:10:53;;;;;;;4.37;2.27;;;;;;;;;;1924529;74;21508;-46
2024/04/06 13:13:22;;;;;;;7.58;1.60;;;;;;;;;;1924612;74;21073;-45
2024/04/06 13:15:50;;;;;;;2.67;1.70;;;;;;;;;;1924702;74;21023;-46
2024/04/06 13:18:19;;;;;;;2.10;1.67;;;;;;;;;;1924554;74;21124;-45
2024/04/06 13:20:50;;;;;;;2.87;1.45;;;;;;;;;;1924719;74;21066;-47
2024/04/06 13:23:18;;;;;;;9.00;1.90;;;;;;;;;;1924677;74;21559;-45
2024/04/06 13:25:46;;;;;;;2.70;1.67;;;;;;;;;;1924662;74;21131;-45
2024/04/06 13:28:16;;;;;;;6.87;2.22;;;;;;;;;;1924596;74;21089;-45
2024/04/06 13:30:45;;;;;;;18.17;5.30;;;;;;;;;;1924710;74;21022;-47
2024/04/06 13:33:13;;;;;;;4.37;1.90;;;;;;;;;;1924660;74;21031;-46
2024/04/06 13:35:42;;;;;;;3.85;1.22;;;;;;;;;;1924641;74;21101;-45
2024/04/06 13:38:10;;;;;;;4.60;1.70;;;;;;;;;;1924559;74;20995;-44
2024/04/06 13:40:39;;;;;;;10.95;1.92;;;;;;;;;;1924612;74;21093;-45
2024/04/06 13:43:08;;;;;;;8.80;1.90;;;;;;;;;;1924685;74;21148;-46
2024/04/06 13:45:37;;;;;;;3.52;1.57;;;;;;;;;;1924606;74;21030;-45
2024/04/06 13:48:13;;;;;;;5.65;1.77;;;;;;;;;;1924611;74;21027;-45
